Terminal Aerodrome Forecast
Issued by NWS Nashville, TN

Current Version | Previous Version | Text Only | Print | Product List | Glossary On
Versions: 1 2 3 4 5 6 7 8 9 10 11 12 13 14 15 16 17 18 19 20 21 22 23 24 25 26 27 28 29 30 31 32
000
FTUS44 KOHX 191000 AAA
TAFCSV
TAF AMD
KCSV 191010Z 1910/2006 14006KT P6SM VCSH SCT015 BKN040
     FM191100 15006KT 4SM RA BR OVC015
      TEMPO 1911/1915 1SM +RA BR OVC005
     FM191800 20008KT P6SM VCSH OVC025
     FM192100 23009KT P6SM VCTS BKN050CB=

USA.gov is the U.S. government's official web portal to all federal, state and local government web resources and services.